sensor_id;sensor_type;location;lat;lon;timestamp;temperature;humidity
42907;DHT22;28552;51.146;6.576;2023-04-15T00:00:15;6.00;99.90
42907;DHT22;28552;51.146;6.576;2023-04-15T00:03:17;6.00;99.90
42907;DHT22;28552;51.146;6.576;2023-04-15T00:06:18;6.10;99.90
42907;DHT22;28552;51.146;6.576;2023-04-15T00:09:19;6.00;99.90
42907;DHT22;28552;51.146;6.576;2023-04-15T00:12:20;6.00;99.90
42907;DHT22;28552;51.146;6.576;2023-04-15T00:15:21;5.90;99.90
42907;DHT22;28552;51.146;6.576;2023-04-15T00:18:22;5.80;99.90
42907;DHT22;28552;51.146;6.576;2023-04-15T00:21:23;5.80;99.90
42907;DHT22;28552;51.146;6.576;2023-04-15T00:24:23;5.90;99.90
42907;DHT22;28552;51.146;6.576;2023-04-15T00:27:24;5.90;99.90
42907;DHT22;28552;51.146;6.576;2023-04-15T00:30:24;5.90;99.90
42907;DHT22;28552;51.146;6.576;2023-04-15T00:33:25;5.90;99.90
42907;DHT22;28552;51.146;6.576;2023-04-15T00:36:26;5.70;99.90
42907;DHT22;28552;51.146;6.576;2023-04-15T00:39:26;5.70;99.90
42907;DHT22;28552;51.146;6.576;2023-04-15T00:42:27;5.50;99.90
42907;DHT22;28552;51.146;6.576;2023-04-15T00:45:28;5.30;99.90
42907;DHT22;28552;51.146;6.576;2023-04-15T00:48:29;5.20;99.90
42907;DHT22;28552;51.146;6.576;2023-04-15T00:51:30;5.10;99.90
42907;DHT22;28552;51.146;6.576;2023-04-15T00:54:32;5.00;99.90
42907;DHT22;28552;51.146;6.576;2023-04-15T00:57:34;5.00;99.90
42907;DHT22;28552;51.146;6.576;2023-04-15T01:00:35;5.00;99.90
42907;DHT22;28552;51.146;6.576;2023-04-15T01:03:36;5.00;99.90
42907;DHT22;28552;51.146;6.576;2023-04-15T01:06:37;4.90;99.90
42907;DHT22;28552;51.146;6.576;2023-04-15T01:09:37;4.90;99.90
42907;DHT22;28552;51.146;6.576;2023-04-15T01:12:38;4.90;99.90
42907;DHT22;28552;51.146;6.576;2023-04-15T01:15:39;4.80;99.90
42907;DHT22;28552;51.146;6.576;2023-04-15T01:18:40;4.70;99.90
42907;DHT22;28552;51.146;6.576;2023-04-15T01:21:41;4.60;99.90
42907;DHT22;28552;51.146;6.576;2023-04-15T01:24:46;4.50;99.90
42907;DHT22;28552;51.146;6.576;2023-04-15T01:27:51;4.40;99.90
42907;DHT22;28552;51.146;6.576;2023-04-15T01:31:07;4.30;99.90
42907;DHT22;28552;51.146;6.576;2023-04-15T01:34:08;4.20;99.90
42907;DHT22;28552;51.146;6.576;2023-04-15T01:37:09;4.20;99.90
42907;DHT22;28552;51.146;6.576;2023-04-15T01:40:09;4.30;99.90
42907;DHT22;28552;51.146;6.576;2023-04-15T01:43:10;4.30;99.90
42907;DHT22;28552;51.146;6.576;2023-04-15T01:46:10;4.30;99.90
42907;DHT22;28552;51.146;6.576;2023-04-15T01:49:11;4.30;99.90
42907;DHT22;28552;51.146;6.576;2023-04-15T01:52:11;4.20;99.90
42907;DHT22;28552;51.146;6.576;2023-04-15T01:55:12;4.20;99.90
42907;DHT22;28552;51.146;6.576;2023-04-15T01:58:13;4.20;99.90
42907;DHT22;28552;51.146;6.576;2023-04-15T02:01:14;4.10;99.90
42907;DHT22;28552;51.146;6.576;2023-04-15T02:04:16;4.10;99.90
42907;DHT22;28552;51.146;6.576;2023-04-15T02:07:17;4.00;99.90
42907;DHT22;28552;51.146;6.576;2023-04-15T02:10:17;3.90;99.90
42907;DHT22;28552;51.146;6.576;2023-04-15T02:13:18;3.90;99.90
42907;DHT22;28552;51.146;6.576;2023-04-15T02:16:19;3.90;99.90
42907;DHT22;28552;51.146;6.576;2023-04-15T02:19:20;3.90;99.90
42907;DHT22;28552;51.146;6.576;2023-04-15T02:22:21;3.80;99.90
42907;DHT22;28552;51.146;6.576;2023-04-15T02:25:21;3.80;99.90
42907;DHT22;28552;51.146;6.576;2023-04-15T02:28:22;3.70;99.90
42907;DHT22;28552;51.146;6.576;2023-04-15T02:31:23;3.60;99.90
42907;DHT22;28552;51.146;6.576;2023-04-15T02:34:24;3.60;99.90
42907;DHT22;28552;51.146;6.576;2023-04-15T02:37:26;3.60;99.90
42907;DHT22;28552;51.146;6.576;2023-04-15T02:40:27;3.60;99.90
42907;DHT22;28552;51.146;6.576;2023-04-15T02:43:28;3.70;99.90
42907;DHT22;28552;51.146;6.576;2023-04-15T02:46:28;3.70;99.90
42907;DHT22;28552;51.146;6.576;2023-04-15T02:49:29;3.70;99.90
42907;DHT22;28552;51.146;6.576;2023-04-15T02:52:30;3.60;99.90
42907;DHT22;28552;51.146;6.576;2023-04-15T02:55:30;3.50;99.90
42907;DHT22;28552;51.146;6.576;2023-04-15T02:58:31;3.40;99.90
42907;DHT22;28552;51.146;6.576;2023-04-15T03:01:31;3.30;99.90
42907;DHT22;28552;51.146;6.576;2023-04-15T03:04:32;3.30;99.90
42907;DHT22;28552;51.146;6.576;2023-04-15T03:07:33;3.30;99.90
42907;DHT22;28552;51.146;6.576;2023-04-15T03:10:33;3.30;99.90
42907;DHT22;28552;51.146;6.576;2023-04-15T03:13:34;3.30;99.90
42907;DHT22;28552;51.146;6.576;2023-04-15T03:16:34;3.30;99.90
42907;DHT22;28552;51.146;6.576;2023-04-15T03:19:35;3.30;99.90
42907;DHT22;28552;51.146;6.576;2023-04-15T03:22:35;3.30;99.90
42907;DHT22;28552;51.146;6.576;2023-04-15T03:25:36;3.40;99.90
42907;DHT22;28552;51.146;6.576;2023-04-15T03:28:36;3.40;99.90
42907;DHT22;28552;51.146;6.576;2023-04-15T03:31:37;3.40;99.90
42907;DHT22;28552;51.146;6.576;2023-04-15T03:34:37;3.40;99.90
42907;DHT22;28552;51.146;6.576;2023-04-15T03:37:38;3.30;99.90
42907;DHT22;28552;51.146;6.576;2023-04-15T03:40:40;3.30;99.90
42907;DHT22;28552;51.146;6.576;2023-04-15T03:43:40;3.30;99.90
42907;DHT22;28552;51.146;6.576;2023-04-15T03:46:41;3.30;99.90
42907;DHT22;28552;51.146;6.576;2023-04-15T03:49:41;3.30;99.90
42907;DHT22;28552;51.146;6.576;2023-04-15T03:52:43;3.20;99.90
42907;DHT22;28552;51.146;6.576;2023-04-15T03:55:44;3.20;99.90
42907;DHT22;28552;51.146;6.576;2023-04-15T03:58:45;3.20;99.90
42907;DHT22;28552;51.146;6.576;2023-04-15T04:01:46;3.10;99.90
42907;DHT22;28552;51.146;6.576;2023-04-15T04:04:47;3.10;99.90
42907;DHT22;28552;51.146;6.576;2023-04-15T04:07:47;3.10;99.90
42907;DHT22;28552;51.146;6.576;2023-04-15T04:10:48;3.10;99.90
42907;DHT22;28552;51.146;6.576;2023-04-15T04:13:48;3.00;99.90
42907;DHT22;28552;51.146;6.576;2023-04-15T04:16:49;3.00;99.90
42907;DHT22;28552;51.146;6.576;2023-04-15T04:19:50;3.00;99.90
42907;DHT22;28552;51.146;6.576;2023-04-15T04:22:50;3.00;99.90
42907;DHT22;28552;51.146;6.576;2023-04-15T04:25:51;3.00;99.90
42907;DHT22;28552;51.146;6.576;2023-04-15T04:28:52;3.00;99.90
42907;DHT22;28552;51.146;6.576;2023-04-15T04:31:53;3.00;99.90
42907;DHT22;28552;51.146;6.576;2023-04-15T04:34:53;3.00;99.90
42907;DHT22;28552;51.146;6.576;2023-04-15T04:37:54;3.10;99.90
42907;DHT22;28552;51.146;6.576;2023-04-15T04:40:54;3.10;99.90
42907;DHT22;28552;51.146;6.576;2023-04-15T04:43:55;3.20;99.90
42907;DHT22;28552;51.146;6.576;2023-04-15T04:46:56;3.20;99.90
42907;DHT22;28552;51.146;6.576;2023-04-15T04:49:56;3.20;99.90
42907;DHT22;28552;51.146;6.576;2023-04-15T04:52:57;3.20;99.90
42907;DHT22;28552;51.146;6.576;2023-04-15T04:55:58;3.20;99.90
42907;DHT22;28552;51.146;6.576;2023-04-15T04:58:58;3.20;99.90
42907;DHT22;28552;51.146;6.576;2023-04-15T05:01:59;3.30;99.90
42907;DHT22;28552;51.146;6.576;2023-04-15T05:05:00;3.30;99.90
42907;DHT22;28552;51.146;6.576;2023-04-15T05:08:00;3.30;99.90
42907;DHT22;28552;51.146;6.576;2023-04-15T05:11:02;3.40;99.90
42907;DHT22;28552;51.146;6.576;2023-04-15T05:14:02;3.50;99.90
42907;DHT22;28552;51.146;6.576;2023-04-15T05:17:03;3.60;99.90
42907;DHT22;28552;51.146;6.576;2023-04-15T05:20:03;3.80;99.90
42907;DHT22;28552;51.146;6.576;2023-04-15T05:23:04;3.90;99.90
42907;DHT22;28552;51.146;6.576;2023-04-15T05:26:05;3.90;99.90
42907;DHT22;28552;51.146;6.576;2023-04-15T05:29:05;4.00;99.90
42907;DHT22;28552;51.146;6.576;2023-04-15T05:32:06;4.10;99.90
42907;DHT22;28552;51.146;6.576;2023-04-15T05:35:07;4.10;99.90
42907;DHT22;28552;51.146;6.576;2023-04-15T05:38:07;4.20;99.90
42907;DHT22;28552;51.146;6.576;2023-04-15T05:41:08;4.30;99.90
42907;DHT22;28552;51.146;6.576;2023-04-15T05:44:09;4.40;99.90
42907;DHT22;28552;51.146;6.576;2023-04-15T05:47:09;4.40;99.90
42907;DHT22;28552;51.146;6.576;2023-04-15T05:50:10;4.50;99.90
42907;DHT22;28552;51.146;6.576;2023-04-15T05:53:11;4.60;99.90
42907;DHT22;28552;51.146;6.576;2023-04-15T05:56:11;4.70;99.90
42907;DHT22;28552;51.146;6.576;2023-04-15T05:59:12;4.80;99.90
42907;DHT22;28552;51.146;6.576;2023-04-15T06:02:12;4.90;99.90
42907;DHT22;28552;51.146;6.576;2023-04-15T06:05:13;5.10;99.90
42907;DHT22;28552;51.146;6.576;2023-04-15T06:08:14;5.30;99.90
42907;DHT22;28552;51.146;6.576;2023-04-15T06:11:14;5.50;99.90
42907;DHT22;28552;51.146;6.576;2023-04-15T06:14:15;5.80;99.90
42907;DHT22;28552;51.146;6.576;2023-04-15T06:17:16;6.00;99.90
42907;DHT22;28552;51.146;6.576;2023-04-15T06:20:18;6.30;99.90
42907;DHT22;28552;51.146;6.576;2023-04-15T06:23:18;6.50;99.90
42907;DHT22;28552;51.146;6.576;2023-04-15T06:26:19;6.60;99.90
42907;DHT22;28552;51.146;6.576;2023-04-15T06:29:20;6.70;99.90
42907;DHT22;28552;51.146;6.576;2023-04-15T06:32:20;6.80;99.90
42907;DHT22;28552;51.146;6.576;2023-04-15T06:35:21;6.90;99.90
42907;DHT22;28552;51.146;6.576;2023-04-15T06:38:22;7.00;99.90
42907;DHT22;28552;51.146;6.576;2023-04-15T06:41:23;7.10;99.90
42907;DHT22;28552;51.146;6.576;2023-04-15T06:44:23;7.30;99.90
42907;DHT22;28552;51.146;6.576;2023-04-15T06:47:24;7.50;99.90
42907;DHT22;28552;51.146;6.576;2023-04-15T06:50:25;7.70;99.90
42907;DHT22;28552;51.146;6.576;2023-04-15T06:53:25;7.90;99.90
42907;DHT22;28552;51.146;6.576;2023-04-15T06:56:27;8.00;99.90
42907;DHT22;28552;51.146;6.576;2023-04-15T06:59:28;8.20;99.90
42907;DHT22;28552;51.146;6.576;2023-04-15T07:02:28;8.30;99.90
42907;DHT22;28552;51.146;6.576;2023-04-15T07:05:29;8.50;99.90
42907;DHT22;28552;51.146;6.576;2023-04-15T07:08:30;8.70;99.90
42907;DHT22;28552;51.146;6.576;2023-04-15T07:11:30;8.90;99.90
42907;DHT22;28552;51.146;6.576;2023-04-15T07:14:31;9.10;99.90
42907;DHT22;28552;51.146;6.576;2023-04-15T07:17:31;9.40;99.90
42907;DHT22;28552;51.146;6.576;2023-04-15T07:20:32;9.50;99.90
42907;DHT22;28552;51.146;6.576;2023-04-15T07:23:33;9.70;99.90
42907;DHT22;28552;51.146;6.576;2023-04-15T07:26:33;9.90;99.90
42907;DHT22;28552;51.146;6.576;2023-04-15T07:29:34;10.10;99.90
42907;DHT22;28552;51.146;6.576;2023-04-15T07:32:35;10.30;99.90
42907;DHT22;28552;51.146;6.576;2023-04-15T07:35:35;10.50;99.90
42907;DHT22;28552;51.146;6.576;2023-04-15T07:38:36;10.60;99.90
42907;DHT22;28552;51.146;6.576;2023-04-15T07:41:36;10.70;99.90
42907;DHT22;28552;51.146;6.576;2023-04-15T07:44:37;10.80;99.90
42907;DHT22;28552;51.146;6.576;2023-04-15T07:47:38;10.80;99.90
42907;DHT22;28552;51.146;6.576;2023-04-15T07:50:40;10.80;99.90
42907;DHT22;28552;51.146;6.576;2023-04-15T07:53:40;10.80;99.90
42907;DHT22;28552;51.146;6.576;2023-04-15T07:56:41;10.90;99.90
42907;DHT22;28552;51.146;6.576;2023-04-15T07:59:42;11.00;99.90
42907;DHT22;28552;51.146;6.576;2023-04-15T08:02:42;11.20;99.90
42907;DHT22;28552;51.146;6.576;2023-04-15T08:05:43;11.30;99.90
42907;DHT22;28552;51.146;6.576;2023-04-15T08:08:44;11.40;99.90
42907;DHT22;28552;51.146;6.576;2023-04-15T08:11:47;11.50;99.90
42907;DHT22;28552;51.146;6.576;2023-04-15T08:14:50;11.80;99.90
42907;DHT22;28552;51.146;6.576;2023-04-15T08:17:50;12.00;99.90
42907;DHT22;28552;51.146;6.576;2023-04-15T08:20:51;12.20;99.90
42907;DHT22;28552;51.146;6.576;2023-04-15T08:23:52;12.40;99.90
42907;DHT22;28552;51.146;6.576;2023-04-15T08:26:53;12.60;99.90
42907;DHT22;28552;51.146;6.576;2023-04-15T08:29:54;12.70;99.90
42907;DHT22;28552;51.146;6.576;2023-04-15T08:32:54;12.80;99.90
42907;DHT22;28552;51.146;6.576;2023-04-15T08:35:55;12.80;99.90
42907;DHT22;28552;51.146;6.576;2023-04-15T08:38:56;12.80;99.90
42907;DHT22;28552;51.146;6.576;2023-04-15T08:42:00;12.80;99.90
42907;DHT22;28552;51.146;6.576;2023-04-15T08:45:03;12.80;99.90
42907;DHT22;28552;51.146;6.576;2023-04-15T08:48:04;12.80;99.90
42907;DHT22;28552;51.146;6.576;2023-04-15T08:51:06;12.80;99.90
42907;DHT22;28552;51.146;6.576;2023-04-15T08:54:08;12.80;99.90
42907;DHT22;28552;51.146;6.576;2023-04-15T08:57:09;12.70;99.90
42907;DHT22;28552;51.146;6.576;2023-04-15T09:00:10;12.60;99.90
42907;DHT22;28552;51.146;6.576;2023-04-15T09:03:11;12.70;99.90
42907;DHT22;28552;51.146;6.576;2023-04-15T09:06:12;12.70;99.90
42907;DHT22;28552;51.146;6.576;2023-04-15T09:09:13;12.80;99.90
42907;DHT22;28552;51.146;6.576;2023-04-15T09:12:14;12.90;99.90
42907;DHT22;28552;51.146;6.576;2023-04-15T09:15:16;12.90;99.90
42907;DHT22;28552;51.146;6.576;2023-04-15T09:18:32;12.90;99.90
42907;DHT22;28552;51.146;6.576;2023-04-15T09:21:33;13.00;99.90
42907;DHT22;28552;51.146;6.576;2023-04-15T09:24:36;13.20;99.90
42907;DHT22;28552;51.146;6.576;2023-04-15T09:27:47;13.20;99.90
42907;DHT22;28552;51.146;6.576;2023-04-15T09:30:52;13.20;99.90
42907;DHT22;28552;51.146;6.576;2023-04-15T09:33:55;13.20;99.90
42907;DHT22;28552;51.146;6.576;2023-04-15T09:36:56;13.20;99.90
42907;DHT22;28552;51.146;6.576;2023-04-15T09:39:57;13.20;99.90
42907;DHT22;28552;51.146;6.576;2023-04-15T09:42:57;13.30;99.90
42907;DHT22;28552;51.146;6.576;2023-04-15T09:45:58;13.40;99.90
42907;DHT22;28552;51.146;6.576;2023-04-15T09:49:07;13.60;99.90
42907;DHT22;28552;51.146;6.576;2023-04-15T09:52:08;13.70;99.90
42907;DHT22;28552;51.146;6.576;2023-04-15T09:55:09;13.50;99.90
42907;DHT22;28552;51.146;6.576;2023-04-15T09:58:17;13.30;99.90
42907;DHT22;28552;51.146;6.576;2023-04-15T10:01:18;13.20;99.90
42907;DHT22;28552;51.146;6.576;2023-04-15T10:04:19;13.10;99.90
42907;DHT22;28552;51.146;6.576;2023-04-15T10:07:20;13.10;99.90
42907;DHT22;28552;51.146;6.576;2023-04-15T10:10:21;13.10;99.90
42907;DHT22;28552;51.146;6.576;2023-04-15T10:13:24;13.20;99.90
42907;DHT22;28552;51.146;6.576;2023-04-15T10:16:27;13.40;99.90
42907;DHT22;28552;51.146;6.576;2023-04-15T10:19:30;13.40;99.90
42907;DHT22;28552;51.146;6.576;2023-04-15T10:22:32;13.20;99.90
42907;DHT22;28552;51.146;6.576;2023-04-15T10:25:33;13.10;99.90
42907;DHT22;28552;51.146;6.576;2023-04-15T10:28:33;13.00;99.90
42907;DHT22;28552;51.146;6.576;2023-04-15T10:31:34;13.10;99.90
42907;DHT22;28552;51.146;6.576;2023-04-15T10:34:37;13.40;99.90
42907;DHT22;28552;51.146;6.576;2023-04-15T10:37:38;13.50;99.90
42907;DHT22;28552;51.146;6.576;2023-04-15T10:40:38;13.50;99.90
42907;DHT22;28552;51.146;6.576;2023-04-15T10:43:44;13.50;99.90
42907;DHT22;28552;51.146;6.576;2023-04-15T10:46:45;13.30;99.90
42907;DHT22;28552;51.146;6.576;2023-04-15T10:49:49;13.20;99.90
42907;DHT22;28552;51.146;6.576;2023-04-15T10:52:51;13.10;99.90
42907;DHT22;28552;51.146;6.576;2023-04-15T10:55:52;13.20;99.90
42907;DHT22;28552;51.146;6.576;2023-04-15T10:58:52;13.40;99.90
42907;DHT22;28552;51.146;6.576;2023-04-15T11:01:56;13.50;99.90
42907;DHT22;28552;51.146;6.576;2023-04-15T11:04:59;13.60;99.90
42907;DHT22;28552;51.146;6.576;2023-04-15T11:08:01;13.90;99.90
42907;DHT22;28552;51.146;6.576;2023-04-15T11:11:01;14.10;99.90
42907;DHT22;28552;51.146;6.576;2023-04-15T11:14:02;13.90;99.90
42907;DHT22;28552;51.146;6.576;2023-04-15T11:17:03;13.80;99.90
42907;DHT22;28552;51.146;6.576;2023-04-15T11:20:05;13.60;99.90
42907;DHT22;28552;51.146;6.576;2023-04-15T11:23:06;13.60;99.90
42907;DHT22;28552;51.146;6.576;2023-04-15T11:26:08;13.90;99.90
42907;DHT22;28552;51.146;6.576;2023-04-15T11:29:17;14.00;99.90
42907;DHT22;28552;51.146;6.576;2023-04-15T11:32:17;14.00;99.90
42907;DHT22;28552;51.146;6.576;2023-04-15T11:35:18;14.00;99.90
42907;DHT22;28552;51.146;6.576;2023-04-15T11:38:19;14.00;99.90
42907;DHT22;28552;51.146;6.576;2023-04-15T11:41:20;14.10;99.90
42907;DHT22;28552;51.146;6.576;2023-04-15T11:44:21;14.10;99.90
42907;DHT22;28552;51.146;6.576;2023-04-15T11:47:23;14.10;99.90
42907;DHT22;28552;51.146;6.576;2023-04-15T11:50:23;13.80;99.90
42907;DHT22;28552;51.146;6.576;2023-04-15T11:56:51;13.70;99.90
42907;DHT22;28552;51.146;6.576;2023-04-15T11:59:54;13.80;99.90
42907;DHT22;28552;51.146;6.576;2023-04-15T12:03:11;13.80;99.90
42907;DHT22;28552;51.146;6.576;2023-04-15T12:06:15;13.70;99.90
42907;DHT22;28552;51.146;6.576;2023-04-15T12:09:17;13.70;99.90
42907;DHT22;28552;51.146;6.576;2023-04-15T12:12:19;13.70;99.90
42907;DHT22;28552;51.146;6.576;2023-04-15T12:15:21;13.80;99.90
42907;DHT22;28552;51.146;6.576;2023-04-15T12:18:24;13.90;99.90
42907;DHT22;28552;51.146;6.576;2023-04-15T12:21:27;14.00;99.90
42907;DHT22;28552;51.146;6.576;2023-04-15T12:24:33;13.90;99.90
42907;DHT22;28552;51.146;6.576;2023-04-15T12:27:35;13.70;99.90
42907;DHT22;28552;51.146;6.576;2023-04-15T12:30:36;13.40;99.90
42907;DHT22;28552;51.146;6.576;2023-04-15T12:33:36;13.30;99.90
42907;DHT22;28552;51.146;6.576;2023-04-15T12:36:37;13.00;99.90
42907;DHT22;28552;51.146;6.576;2023-04-15T12:39:40;13.00;99.90
42907;DHT22;28552;51.146;6.576;2023-04-15T12:42:41;13.00;99.90
42907;DHT22;28552;51.146;6.576;2023-04-15T12:45:42;12.80;99.90
42907;DHT22;28552;51.146;6.576;2023-04-15T12:48:42;12.60;99.90
42907;DHT22;28552;51.146;6.576;2023-04-15T12:51:43;12.40;99.90
42907;DHT22;28552;51.146;6.576;2023-04-15T12:54:43;12.40;99.90
42907;DHT22;28552;51.146;6.576;2023-04-15T12:57:44;12.40;99.90
42907;DHT22;28552;51.146;6.576;2023-04-15T13:00:44;12.40;99.90
42907;DHT22;28552;51.146;6.576;2023-04-15T13:03:46;12.50;99.90
42907;DHT22;28552;51.146;6.576;2023-04-15T13:06:47;12.60;99.90
42907;DHT22;28552;51.146;6.576;2023-04-15T13:09:48;12.60;99.90
42907;DHT22;28552;51.146;6.576;2023-04-15T13:12:49;12.70;99.90
42907;DHT22;28552;51.146;6.576;2023-04-15T13:15:52;12.90;99.90
42907;DHT22;28552;51.146;6.576;2023-04-15T13:18:53;12.90;99.90
42907;DHT22;28552;51.146;6.576;2023-04-15T13:21:53;12.90;99.90
42907;DHT22;28552;51.146;6.576;2023-04-15T13:24:54;13.00;99.90
42907;DHT22;28552;51.146;6.576;2023-04-15T13:27:54;12.90;99.90
42907;DHT22;28552;51.146;6.576;2023-04-15T13:30:56;12.80;99.90
42907;DHT22;28552;51.146;6.576;2023-04-15T13:33:57;12.60;99.90
42907;DHT22;28552;51.146;6.576;2023-04-15T13:36:57;12.30;99.90
42907;DHT22;28552;51.146;6.576;2023-04-15T13:39:58;12.10;99.90
42907;DHT22;28552;51.146;6.576;2023-04-15T13:42:58;12.00;99.90
42907;DHT22;28552;51.146;6.576;2023-04-15T13:45:59;12.10;99.90
42907;DHT22;28552;51.146;6.576;2023-04-15T13:49:00;12.20;99.90
42907;DHT22;28552;51.146;6.576;2023-04-15T13:52:01;12.30;99.90
42907;DHT22;28552;51.146;6.576;2023-04-15T13:55:02;12.50;99.90
42907;DHT22;28552;51.146;6.576;2023-04-15T13:58:03;12.70;99.90
42907;DHT22;28552;51.146;6.576;2023-04-15T14:01:04;12.90;99.90
42907;DHT22;28552;51.146;6.576;2023-04-15T14:04:05;12.90;99.90
42907;DHT22;28552;51.146;6.576;2023-04-15T14:07:06;12.80;99.90
42907;DHT22;28552;51.146;6.576;2023-04-15T14:10:07;12.60;99.90
42907;DHT22;28552;51.146;6.576;2023-04-15T14:13:07;12.60;99.90
42907;DHT22;28552;51.146;6.576;2023-04-15T14:16:08;12.50;99.90
42907;DHT22;28552;51.146;6.576;2023-04-15T14:19:08;12.50;99.90
42907;DHT22;28552;51.146;6.576;2023-04-15T14:22:09;12.40;99.90
42907;DHT22;28552;51.146;6.576;2023-04-15T14:25:09;12.30;99.90
42907;DHT22;28552;51.146;6.576;2023-04-15T14:28:10;12.10;99.90
42907;DHT22;28552;51.146;6.576;2023-04-15T14:31:11;12.00;99.90
42907;DHT22;28552;51.146;6.576;2023-04-15T14:34:11;11.90;99.90
42907;DHT22;28552;51.146;6.576;2023-04-15T14:37:12;11.90;99.90
42907;DHT22;28552;51.146;6.576;2023-04-15T14:40:12;11.80;99.90
42907;DHT22;28552;51.146;6.576;2023-04-15T14:43:13;11.80;99.90
42907;DHT22;28552;51.146;6.576;2023-04-15T14:46:13;11.80;99.90
42907;DHT22;28552;51.146;6.576;2023-04-15T14:49:14;11.80;99.90
42907;DHT22;28552;51.146;6.576;2023-04-15T14:52:15;11.70;99.90
42907;DHT22;28552;51.146;6.576;2023-04-15T14:55:15;11.70;99.90
42907;DHT22;28552;51.146;6.576;2023-04-15T14:58:16;11.70;99.90
42907;DHT22;28552;51.146;6.576;2023-04-15T15:01:17;11.60;99.90
42907;DHT22;28552;51.146;6.576;2023-04-15T15:04:17;11.70;99.90
42907;DHT22;28552;51.146;6.576;2023-04-15T15:07:18;11.80;99.90
42907;DHT22;28552;51.146;6.576;2023-04-15T15:10:18;11.90;99.90
42907;DHT22;28552;51.146;6.576;2023-04-15T15:13:19;11.90;99.90
42907;DHT22;28552;51.146;6.576;2023-04-15T15:16:20;11.90;99.90
42907;DHT22;28552;51.146;6.576;2023-04-15T15:19:20;11.80;99.90
42907;DHT22;28552;51.146;6.576;2023-04-15T15:22:21;11.70;99.90
42907;DHT22;28552;51.146;6.576;2023-04-15T15:25:22;11.60;99.90
42907;DHT22;28552;51.146;6.576;2023-04-15T15:28:22;11.50;99.90
42907;DHT22;28552;51.146;6.576;2023-04-15T15:31:23;11.70;99.90
42907;DHT22;28552;51.146;6.576;2023-04-15T15:34:23;11.90;99.90
42907;DHT22;28552;51.146;6.576;2023-04-15T15:37:24;12.10;99.90
42907;DHT22;28552;51.146;6.576;2023-04-15T15:40:24;12.30;99.90
42907;DHT22;28552;51.146;6.576;2023-04-15T15:43:25;12.20;99.90
42907;DHT22;28552;51.146;6.576;2023-04-15T15:46:26;12.00;99.90
42907;DHT22;28552;51.146;6.576;2023-04-15T15:49:27;11.70;99.90
42907;DHT22;28552;51.146;6.576;2023-04-15T15:52:28;11.60;99.90
42907;DHT22;28552;51.146;6.576;2023-04-15T15:55:28;11.60;99.90
42907;DHT22;28552;51.146;6.576;2023-04-15T15:58:30;11.70;99.90
42907;DHT22;28552;51.146;6.576;2023-04-15T16:01:30;11.90;99.90
42907;DHT22;28552;51.146;6.576;2023-04-15T16:04:31;12.20;99.90
42907;DHT22;28552;51.146;6.576;2023-04-15T16:07:31;12.30;99.90
42907;DHT22;28552;51.146;6.576;2023-04-15T16:10:32;12.40;99.90
42907;DHT22;28552;51.146;6.576;2023-04-15T16:13:32;12.40;99.90
42907;DHT22;28552;51.146;6.576;2023-04-15T16:16:33;12.30;99.90
42907;DHT22;28552;51.146;6.576;2023-04-15T16:19:34;12.20;99.90
42907;DHT22;28552;51.146;6.576;2023-04-15T16:22:34;12.10;99.90
42907;DHT22;28552;51.146;6.576;2023-04-15T16:25:36;11.90;99.90
42907;DHT22;28552;51.146;6.576;2023-04-15T16:28:37;11.70;99.90
42907;DHT22;28552;51.146;6.576;2023-04-15T16:31:37;11.50;99.90
42907;DHT22;28552;51.146;6.576;2023-04-15T16:34:39;11.40;99.90
42907;DHT22;28552;51.146;6.576;2023-04-15T16:37:40;11.30;99.90
42907;DHT22;28552;51.146;6.576;2023-04-15T16:40:41;11.20;99.90
42907;DHT22;28552;51.146;6.576;2023-04-15T16:43:41;11.20;99.90
42907;DHT22;28552;51.146;6.576;2023-04-15T16:46:42;11.10;99.90
42907;DHT22;28552;51.146;6.576;2023-04-15T16:49:42;11.00;99.90
42907;DHT22;28552;51.146;6.576;2023-04-15T16:52:43;11.00;99.90
42907;DHT22;28552;51.146;6.576;2023-04-15T16:55:43;10.90;99.90
42907;DHT22;28552;51.146;6.576;2023-04-15T16:58:44;10.80;99.90
42907;DHT22;28552;51.146;6.576;2023-04-15T17:01:45;10.70;99.90
42907;DHT22;28552;51.146;6.576;2023-04-15T17:04:45;10.60;99.90
42907;DHT22;28552;51.146;6.576;2023-04-15T17:07:46;10.60;99.90
42907;DHT22;28552;51.146;6.576;2023-04-15T17:10:46;10.60;99.90
42907;DHT22;28552;51.146;6.576;2023-04-15T17:13:47;10.50;99.90
42907;DHT22;28552;51.146;6.576;2023-04-15T17:16:48;10.50;99.90
42907;DHT22;28552;51.146;6.576;2023-04-15T17:19:48;10.40;99.90
42907;DHT22;28552;51.146;6.576;2023-04-15T17:22:49;10.30;99.90
42907;DHT22;28552;51.146;6.576;2023-04-15T17:25:49;10.30;99.90
42907;DHT22;28552;51.146;6.576;2023-04-15T17:28:50;10.20;99.90
42907;DHT22;28552;51.146;6.576;2023-04-15T17:31:51;10.20;99.90
42907;DHT22;28552;51.146;6.576;2023-04-15T17:34:52;10.10;99.90
42907;DHT22;28552;51.146;6.576;2023-04-15T17:37:52;10.00;99.90
42907;DHT22;28552;51.146;6.576;2023-04-15T17:40:53;9.90;99.90
42907;DHT22;28552;51.146;6.576;2023-04-15T17:43:54;9.70;99.90
42907;DHT22;28552;51.146;6.576;2023-04-15T17:46:54;9.70;99.90
42907;DHT22;28552;51.146;6.576;2023-04-15T17:49:55;9.60;99.90
42907;DHT22;28552;51.146;6.576;2023-04-15T17:52:55;9.50;99.90
42907;DHT22;28552;51.146;6.576;2023-04-15T17:55:57;9.50;99.90
42907;DHT22;28552;51.146;6.576;2023-04-15T17:58:58;9.40;99.90
42907;DHT22;28552;51.146;6.576;2023-04-15T18:01:59;9.40;99.90
42907;DHT22;28552;51.146;6.576;2023-04-15T18:05:00;9.40;99.90
42907;DHT22;28552;51.146;6.576;2023-04-15T18:08:00;9.40;99.90
42907;DHT22;28552;51.146;6.576;2023-04-15T18:11:01;9.40;99.90
42907;DHT22;28552;51.146;6.576;2023-04-15T18:14:02;9.40;99.90
42907;DHT22;28552;51.146;6.576;2023-04-15T18:17:03;9.40;99.90
42907;DHT22;28552;51.146;6.576;2023-04-15T18:20:04;9.40;99.90
42907;DHT22;28552;51.146;6.576;2023-04-15T18:23:04;9.20;99.90
42907;DHT22;28552;51.146;6.576;2023-04-15T18:26:05;9.10;99.90
42907;DHT22;28552;51.146;6.576;2023-04-15T18:29:05;9.00;99.90
42907;DHT22;28552;51.146;6.576;2023-04-15T18:32:06;8.90;99.90
42907;DHT22;28552;51.146;6.576;2023-04-15T18:35:07;8.80;99.90
42907;DHT22;28552;51.146;6.576;2023-04-15T18:38:08;8.70;99.90
42907;DHT22;28552;51.146;6.576;2023-04-15T18:41:09;8.60;99.90
42907;DHT22;28552;51.146;6.576;2023-04-15T18:44:10;8.60;99.90
42907;DHT22;28552;51.146;6.576;2023-04-15T18:47:10;8.50;99.90
42907;DHT22;28552;51.146;6.576;2023-04-15T18:50:11;8.50;99.90
42907;DHT22;28552;51.146;6.576;2023-04-15T18:53:11;8.40;99.90
42907;DHT22;28552;51.146;6.576;2023-04-15T18:56:12;8.40;99.90
42907;DHT22;28552;51.146;6.576;2023-04-15T18:59:12;8.40;99.90
42907;DHT22;28552;51.146;6.576;2023-04-15T19:02:13;8.40;99.90
42907;DHT22;28552;51.146;6.576;2023-04-15T19:05:13;8.40;99.90
42907;DHT22;28552;51.146;6.576;2023-04-15T19:08:14;8.40;99.90
42907;DHT22;28552;51.146;6.576;2023-04-15T19:11:14;8.40;99.90
42907;DHT22;28552;51.146;6.576;2023-04-15T19:14:16;8.40;99.90